Armutova, Turkey
Current Conditions -  °F | °C
As of 11:50 PM on Monday 24 Nov 2014 (Local Time) from LTFD Reporting Station
Broken Clouds Broken Clouds  
Wind Chill: 42°   Ceiling: 10000
Heat Index: 46°   Visibility: 6mi
Dew Point: 37°   Wind: 8mph
Humidity: 71%   Direction: 80°E
Pressure: 30.15"   Gusts: NA
Location:  39.39°N, 26.84°E
Report Text: LTFD 242050Z 08007KT 9999 SCT030 BKN100 08/03 Q1021
Loading
Personal Weather Stations






























Interactive Weather Map New forecast layout! Learn more

10-Day Weather Forecast

Advertisements
Track Severe Weather on mobile